Terminal Aerodrome Forecast
Issued by NWS Twin Cities, MN

Home | Current Version | Previous Version | Graphics & Text | Print | Product List | Glossary On
Versions: 1 2 3 4 5 6 7 8 9 10 11 12 13 14 15 16 17 18 19
000
FTUS43 KMPX 302300
TAFEAU
TAF
KEAU 302320Z 3100/3124 36004KT P6SM BKN020
     FM310600 VRB02KT 3SM BR SCT015
     FM310800 14002KT 1/4SM FG VV002
     FM311500 14008KT 6SM BR BKN015
     FM311700 15014KT P6SM SCT025 BKN100=

USA.gov is the U.S. government's official web portal to all federal, state and local government web resources and services.